CheckWX is a tool to help pilots better visualize weather data.  It is not intended as a substitute for an official pre-flight weather briefing.

15:11:31 UTC

KCUB TAF
Jim Hamilton L B Owens Airport
Columbia, South Carolina, USA
KCUB 131450Z 1315/1412 02005KT 2SM RA BR OVC006 TEMPO 1315/1316 1SM +RA BR OVC005 FM131600 03005KT 1 1/2SM -RA BR OVC006

Dec-13@
15:00 UTC

Dec-13 @ 15:00 UTC

Dec-13@
16:00 UTC

Dec-13 @ 16:00 UTC

KCUB 131450Z 1315/1412 02005KT 2SM RA BR OVC006
Wind
  • 020° at 5 KTS
Conditions
Rain, Mist
Cloud Levels
  • Overcast at 600' AGL

Dec-13@
15:00 UTC

Dec-13 @ 15:00 UTC

Dec-13@
16:00 UTC

Dec-13 @ 16:00 UTC

TEMPO 1315/1316 1SM +RA BR OVC005

Temporary

Temporary Changes expected for less than half the time period

Conditions
Heavy Rain, Mist
Cloud Levels
  • Overcast at 500' AGL

Dec-13@
16:00 UTC

Dec-13 @ 16:00 UTC

Dec-14@
12:00 UTC

Dec-14 @ 12:00 UTC

FM131600 03005KT 1 1/2SM -RA BR OVC006

From

From Standard forecast or significant change

Wind
  • 030° at 5 KTS
Conditions
Light Rain, Mist
Cloud Levels
  • Overcast at 600' AGL